createdAt,value
2019-04-01T00:02:20.326Z,101659.45
2019-04-01T00:05:08.135Z,101653.78
2019-04-01T00:46:17.467Z,101679.62
2019-04-01T01:01:39.942Z,101675.30
2019-04-01T01:04:27.253Z,101681.70
2019-04-01T01:07:21.424Z,101683.99
2019-04-01T01:10:08.224Z,101681.84
2019-04-01T01:31:47.847Z,101682.67
2019-04-01T02:06:45.454Z,101682.59
2019-04-01T02:09:32.779Z,101672.16
2019-04-01T02:12:19.946Z,101673.13
2019-04-01T02:15:21.645Z,101668.70
2019-04-01T02:55:44.886Z,101672.92
2019-04-01T02:58:31.688Z,101678.14
2019-04-01T03:01:18.918Z,101669.88
2019-04-01T03:20:14.783Z,101675.83
2019-04-01T03:23:09.194Z,101673.21
2019-04-01T03:25:56.177Z,101676.25
2019-04-01T03:28:50.151Z,101680.55
2019-04-01T03:50:20.385Z,101690.25
2019-04-01T04:09:03.645Z,101679.55
2019-04-01T04:15:05.615Z,101688.20
2019-04-01T04:24:13.558Z,101691.64
2019-04-01T04:27:00.551Z,101688.16
2019-04-01T04:29:47.686Z,101684.25
2019-04-01T04:35:43.561Z,101690.76
2019-04-01T04:57:30.739Z,101692.42
2019-04-01T05:00:17.455Z,101703.89
2019-04-01T05:03:04.755Z,101696.45
2019-04-01T05:05:51.560Z,101698.13
2019-04-01T05:08:38.565Z,101702.47
2019-04-01T05:20:43.634Z,101699.10
2019-04-01T05:29:46.638Z,101705.50
2019-04-01T05:48:07.534Z,101715.61
2019-04-01T05:50:54.800Z,101720.43
2019-04-01T05:53:41.531Z,101723.47
2019-04-01T06:05:48.390Z,101726.14
2019-04-01T06:08:35.317Z,101723.16
2019-04-01T06:11:22.441Z,101715.16
2019-04-01T06:14:09.411Z,101723.56
2019-04-01T06:16:56.091Z,101718.78
2019-04-01T06:29:16.330Z,101728.70
2019-04-01T06:32:03.092Z,101732.11
2019-04-01T06:34:53.029Z,101726.83
2019-04-01T06:37:38.875Z,101725.29
2019-04-01T06:40:26.862Z,101724.83
2019-04-01T06:43:14.180Z,101726.48
2019-04-01T06:46:01.358Z,101727.28
2019-04-01T07:07:37.645Z,101723.64
2019-04-01T07:29:01.427Z,101715.61
2019-04-01T07:31:48.582Z,101715.80
2019-04-01T07:34:36.685Z,101721.95
2019-04-01T07:40:31.824Z,101725.05
2019-04-01T07:43:33.703Z,101727.23
2019-04-01T07:49:26.622Z,101721.86
2019-04-01T07:55:20.954Z,101721.16
2019-04-01T07:58:08.542Z,101724.41
2019-04-01T08:00:56.204Z,101733.57
2019-04-01T08:03:43.367Z,101735.66
2019-04-01T08:06:31.356Z,101733.03
2019-04-01T08:15:33.421Z,101720.94
2019-04-01T08:18:20.352Z,101727.09
2019-04-01T08:21:07.779Z,101717.77
2019-04-01T08:23:54.787Z,101720.95
2019-04-01T08:26:41.918Z,101717.19
2019-04-01T08:29:30.821Z,101719.00
2019-04-01T08:32:16.979Z,101711.59
2019-04-01T08:35:03.782Z,101712.34
2019-04-01T08:37:52.191Z,101713.14
2019-04-01T08:40:40.044Z,101706.50
2019-04-01T08:43:27.860Z,101710.38
2019-04-01T08:46:15.078Z,101715.40
2019-04-01T08:49:02.012Z,101708.30
2019-04-01T08:51:49.311Z,101710.64
2019-04-01T08:54:36.672Z,101706.55
2019-04-01T08:57:31.729Z,101705.17
2019-04-01T09:00:18.847Z,101705.81
2019-04-01T09:03:05.865Z,101701.16
2019-04-01T09:05:52.886Z,101701.16
2019-04-01T09:08:39.814Z,101695.32
2019-04-01T09:11:26.914Z,101685.61
2019-04-01T09:14:14.526Z,101697.30
2019-04-01T09:17:01.644Z,101697.20
2019-04-01T09:19:48.794Z,101689.38
2019-04-01T09:22:35.723Z,101692.36
2019-04-01T09:25:23.606Z,101689.11
2019-04-01T09:28:11.254Z,101681.52
2019-04-01T09:30:58.071Z,101678.00
2019-04-01T09:33:45.213Z,101679.14
2019-04-01T09:36:32.617Z,101669.39
2019-04-01T09:42:26.673Z,101660.34
2019-04-01T09:45:13.694Z,101671.67
2019-04-01T09:48:02.145Z,101670.02
2019-04-01T09:50:49.176Z,101667.22
2019-04-01T09:56:43.042Z,101659.69
2019-04-01T09:59:30.872Z,101658.25
2019-04-01T10:02:31.126Z,101649.72
2019-04-01T10:05:04.807Z,101649.38
2019-04-01T10:07:53.049Z,101644.07
2019-04-01T10:10:40.100Z,101644.08
2019-04-01T10:13:27.295Z,101628.52
2019-04-01T10:16:14.423Z,101629.83
2019-04-01T10:19:01.637Z,101630.70
2019-04-01T10:21:49.063Z,101636.87
2019-04-01T10:24:36.282Z,101631.72
2019-04-01T10:27:23.398Z,101624.52
2019-04-01T10:30:10.827Z,101623.55
2019-04-01T10:33:02.002Z,101609.72
2019-04-01T10:38:51.135Z,101600.73
2019-04-01T10:41:38.334Z,101604.22
2019-04-01T10:44:26.044Z,101591.69
2019-04-01T10:47:12.828Z,101597.89
2019-04-01T10:49:59.923Z,101590.77
2019-04-01T10:52:55.072Z,101589.50
2019-04-01T11:08:07.365Z,101580.91
2019-04-01T11:10:54.646Z,101574.94
2019-04-01T11:13:41.639Z,101576.47
2019-04-01T11:16:31.698Z,101570.51
2019-04-01T11:19:15.787Z,101576.11
2019-04-01T11:22:03.815Z,101570.77
2019-04-01T11:24:49.918Z,101560.58
2019-04-01T11:30:44.010Z,101550.41
2019-04-01T11:36:38.243Z,101540.94
2019-04-01T11:39:25.911Z,101537.83
2019-04-01T11:42:15.032Z,101538.64
2019-04-01T11:45:05.625Z,101534.59
2019-04-01T11:47:49.788Z,101529.59
2019-04-01T11:50:47.606Z,101525.48
2019-04-01T11:53:31.466Z,101527.70
2019-04-01T11:56:18.868Z,101521.03
2019-04-01T11:59:06.096Z,101518.84
2019-04-01T12:01:52.817Z,101509.30
2019-04-01T12:04:39.564Z,101515.65
2019-04-01T12:07:27.126Z,101497.55
2019-04-01T12:10:14.356Z,101499.02
2019-04-01T12:13:01.496Z,101497.39
2019-04-01T12:15:51.472Z,101491.45
2019-04-01T12:18:38.565Z,101487.36
2019-04-01T12:21:25.386Z,101482.86
2019-04-01T12:24:12.382Z,101485.55
2019-04-01T12:26:59.600Z,101478.10
2019-04-01T12:32:52.257Z,101448.82
2019-04-01T12:35:39.403Z,101451.13
2019-04-01T12:38:26.805Z,101452.53
2019-04-01T12:41:13.826Z,101444.10
2019-04-01T12:44:00.632Z,101438.90
2019-04-01T12:46:47.546Z,101433.77
2019-04-01T12:49:34.774Z,101424.97
2019-04-01T12:52:22.248Z,101424.91
2019-04-01T12:55:09.222Z,101413.05
2019-04-01T12:57:56.300Z,101415.77
2019-04-01T13:00:43.096Z,101414.43
2019-04-01T13:03:30.297Z,101403.20
2019-04-01T13:06:17.045Z,101407.02
2019-04-01T13:09:04.191Z,101397.80
2019-04-01T13:11:51.400Z,101395.23
2019-04-01T13:14:40.064Z,101387.43
2019-04-01T13:20:37.951Z,101376.78
2019-04-01T13:23:18.266Z,101373.38
2019-04-01T13:26:05.106Z,101378.45
2019-04-01T13:28:52.400Z,101370.20
2019-04-01T13:31:40.520Z,101362.50
2019-04-01T13:34:28.151Z,101361.98
2019-04-01T13:37:15.299Z,101344.03
2019-04-01T13:40:03.306Z,101352.69
2019-04-01T13:42:51.260Z,101350.76
2019-04-01T13:45:38.100Z,101347.78
2019-04-01T13:48:25.269Z,101347.54
2019-04-01T13:51:12.301Z,101332.19
2019-04-01T13:54:08.403Z,101327.45
2019-04-01T13:59:53.309Z,101322.11
2019-04-01T14:02:40.441Z,101317.09
2019-04-01T14:05:27.745Z,101315.77
2019-04-01T14:08:14.749Z,101305.75
2019-04-01T14:11:05.714Z,101301.58
2019-04-01T14:13:48.984Z,101303.70
2019-04-01T14:16:36.045Z,101297.22
2019-04-01T14:19:22.780Z,101287.60
2019-04-01T14:25:16.934Z,101279.91
2019-04-01T14:28:03.618Z,101272.48
2019-04-01T14:30:50.539Z,101269.64
2019-04-01T14:33:37.404Z,101259.34
2019-04-01T14:45:42.429Z,101254.44
2019-04-01T14:48:43.775Z,101243.92
2019-04-01T14:54:36.364Z,101237.44
2019-04-01T14:57:23.527Z,101242.33
2019-04-01T15:00:28.869Z,101238.20
2019-04-01T15:06:22.102Z,101232.34
2019-04-01T15:18:27.888Z,101207.09
2019-04-01T15:24:22.173Z,101206.75
2019-04-01T15:30:15.463Z,101196.31
2019-04-01T15:36:09.734Z,101198.39
2019-04-01T15:38:57.279Z,101187.38
2019-04-01T15:41:45.259Z,101184.38
2019-04-01T15:44:30.779Z,101184.94
2019-04-01T15:47:17.516Z,101177.01
2019-04-01T15:50:04.399Z,101174.88
2019-04-01T15:59:04.382Z,101167.13
2019-04-01T16:01:59.103Z,101170.18
2019-04-01T16:04:45.733Z,101157.98
2019-04-01T16:07:32.821Z,101153.41
2019-04-01T16:10:20.991Z,101149.27
2019-04-01T16:13:09.773Z,101145.05
2019-04-01T16:37:45.236Z,101127.16
2019-04-01T16:40:32.532Z,101122.67
2019-04-01T16:43:19.601Z,101120.91
2019-04-01T16:46:06.913Z,101118.89
2019-04-01T16:52:00.371Z,101119.22
2019-04-01T16:54:55.700Z,101120.69
2019-04-01T16:57:42.808Z,101119.41
2019-04-01T17:00:29.938Z,101118.87
2019-04-01T17:03:16.761Z,101116.48
2019-04-01T17:09:10.004Z,101111.05
2019-04-01T17:11:59.445Z,101113.32
2019-04-01T17:27:24.946Z,101105.22
2019-04-01T17:30:12.092Z,101099.30
2019-04-01T17:32:58.940Z,101098.69
2019-04-01T17:35:45.749Z,101103.22
2019-04-01T17:38:32.540Z,101103.39
2019-04-01T17:41:19.881Z,101105.42
2019-04-01T17:47:13.855Z,101113.08
2019-04-01T17:56:14.216Z,101109.08
2019-04-01T17:59:01.633Z,101115.16
2019-04-01T18:01:47.633Z,101114.94
2019-04-01T18:07:48.501Z,101117.48
2019-04-01T18:10:35.399Z,101118.44
2019-04-01T18:13:22.713Z,101119.35
2019-04-01T18:16:10.085Z,101123.16
2019-04-01T18:18:56.875Z,101125.57
2019-04-01T18:21:43.556Z,101126.39
2019-04-01T18:24:30.849Z,101131.61
2019-04-01T18:27:18.394Z,101124.95
2019-04-01T18:30:06.430Z,101127.51
2019-04-01T18:32:55.369Z,101126.53
2019-04-01T18:35:40.934Z,101128.64
2019-04-01T18:38:27.771Z,101130.22
2019-04-01T18:41:14.965Z,101129.66
2019-04-01T18:44:03.131Z,101123.00
2019-04-01T18:46:50.265Z,101128.98
2019-04-01T18:49:37.484Z,101127.95
2019-04-01T18:52:24.331Z,101124.23
2019-04-01T18:55:12.361Z,101129.34
2019-04-01T18:58:06.533Z,101132.69
2019-04-01T19:00:54.128Z,101126.41
2019-04-01T19:03:44.445Z,101128.95
2019-04-01T19:06:31.965Z,101130.60
2019-04-01T19:09:19.591Z,101127.45
2019-04-01T19:12:07.463Z,101133.92
2019-04-01T19:18:00.599Z,101128.90
2019-04-01T19:20:56.195Z,101128.50
2019-04-01T19:29:49.487Z,101130.12
2019-04-01T19:32:38.158Z,101126.76
2019-04-01T19:35:25.701Z,101130.48
2019-04-01T19:44:33.508Z,101111.04
2019-04-01T19:47:21.910Z,101116.05
2019-04-01T19:50:09.099Z,101120.85
2019-04-01T19:52:56.218Z,101121.51
2019-04-01T20:01:56.324Z,101108.13
2019-04-01T20:04:43.174Z,101112.25
2019-04-01T20:10:37.174Z,101102.42
2019-04-01T20:13:24.032Z,101104.72
2019-04-01T20:22:29.711Z,101102.67
2019-04-01T20:25:17.402Z,101098.34
2019-04-01T20:28:03.766Z,101093.17
2019-04-01T21:13:52.300Z,101040.30
2019-04-01T21:19:46.014Z,101031.95
2019-04-01T21:22:34.282Z,101032.47
2019-04-01T21:25:21.931Z,101025.09
2019-04-01T21:34:22.667Z,101020.63
2019-04-01T21:37:09.901Z,101020.30
2019-04-01T21:43:04.498Z,101019.63
2019-04-01T21:45:53.743Z,101014.05
2019-04-01T21:48:41.907Z,101020.27
2019-04-01T21:51:29.205Z,101013.33
2019-04-01T21:54:16.137Z,101014.72
2019-04-01T21:57:03.310Z,101011.77
2019-04-01T21:59:52.094Z,101007.47
2019-04-01T22:02:39.188Z,101005.86
2019-04-01T22:05:26.623Z,101006.80
2019-04-01T22:08:13.378Z,100996.86
2019-04-01T22:11:01.029Z,100992.98
2019-04-01T22:16:54.758Z,100984.48
2019-04-01T22:19:42.185Z,100980.48
2019-04-01T22:22:28.912Z,100979.77
2019-04-01T22:25:16.721Z,100979.20
2019-04-01T22:28:04.018Z,100969.75
2019-04-01T22:30:51.467Z,100968.11
2019-04-01T22:33:40.197Z,100966.06
2019-04-01T22:36:31.233Z,100952.47
2019-04-01T22:39:21.923Z,100956.22
2019-04-01T22:42:01.700Z,100954.48
2019-04-01T22:44:48.728Z,100953.69
2019-04-01T22:47:35.538Z,100950.74
2019-04-01T22:50:22.332Z,100952.88
2019-04-01T22:56:16.604Z,100949.48
2019-04-01T22:59:03.313Z,100944.41
2019-04-01T23:01:50.964Z,100944.12
2019-04-01T23:10:52.103Z,100940.67
2019-04-01T23:13:53.781Z,100929.46
2019-04-01T23:16:41.904Z,100935.67
2019-04-01T23:19:29.311Z,100930.98
2019-04-01T23:22:16.018Z,100932.34
2019-04-01T23:25:03.062Z,100929.36
2019-04-01T23:27:49.764Z,100919.86
2019-04-01T23:30:37.392Z,100924.25
2019-04-01T23:33:24.201Z,100915.66
2019-04-01T23:36:12.177Z,100916.53
2019-04-01T23:38:58.416Z,100917.59
2019-04-01T23:41:45.563Z,100912.02
2019-04-01T23:47:39.829Z,100898.22
2019-04-01T23:50:27.378Z,100895.70
2019-04-01T23:53:14.987Z,100887.40
2019-04-01T23:56:02.426Z,100886.19
